Weather reports worldwide

Advertisment
Stavoren aws, Netherlands (6267): temperature & dewpoint: 09.12.2019 20:00:00 - 15.12.2019 20:00:00 (CET)Stavoren aws, Netherlands (6267): temperature 5cm: 09.12.2019 20:00:00 - 15.12.2019 20:00:00 (CET)Stavoren aws, Netherlands (6267): wind speed & gusts: 09.12.2019 20:00:00 - 15.12.2019 20:00:00 (CET)Stavoren aws, Netherlands (6267): wind direction: 09.12.2019 20:00:00 - 15.12.2019 20:00:00 (CET)Stavoren aws, Netherlands (6267): visibility: 09.12.2019 20:00:00 - 15.12.2019 20:00:00 (CET)Stavoren aws, Netherlands (6267): precipitation: 09.12.2019 20:00:00 - 15.12.2019 20:00:00 (CET)
Date & Time tt [°C] td [°C] tt 5cm [°C] ff [km/h] ff [kn] fx [km/h] fx [kn] dd vv [km] rr [mm]
15.12.2019 20:00:00 6,9 5,1 6,2 32 17 - - SW 14 -
15.12.2019 19:00:00 7,1 5,0 6,2 29 16 47 25 SW 17 0,0
15.12.2019 18:00:00 7,0 4,9 6,1 32 18 40 21 SW 16 0,0
15.12.2019 17:00:00 7,3 5,1 6,6 25 14 36 19 SW 17 0,0
15.12.2019 16:00:00 7,4 4,3 6,5 25 14 40 21 SW 20 0,0
15.12.2019 15:00:00 8,0 4,5 7,7 29 16 54 29 WSW 18 0,0
15.12.2019 14:00:00 8,0 4,6 7,9 32 18 54 29 WSW 15 0,0
15.12.2019 13:00:00 7,9 3,7 7,3 40 21 65 35 WSW 18 0,0
15.12.2019 12:00:00 7,9 3,2 7,1 43 23 65 35 WSW 19 0,0
15.12.2019 11:00:00 7,5 2,2 6,5 50 27 68 37 WSW 18 0,0
15.12.2019 10:00:00 6,7 1,3 5,8 47 25 68 37 WSW 23 0,0
15.12.2019 09:00:00 6,7 1,8 5,5 47 25 83 45 WSW 24 0,0
15.12.2019 08:00:00 7,3 2,7 6,2 50 27 72 39 WSW 24 0,0
15.12.2019 07:00:00 7,7 4,8 6,7 47 25 68 37 SW 26 0,0
15.12.2019 06:00:00 8,0 6,0 6,6 43 23 68 37 SW 30 0,3
15.12.2019 05:00:00 6,2 5,2 5,6 36 19 58 31 S 11 1,3
15.12.2019 04:00:00 5,9 3,9 5,4 43 23 54 29 S 19 0,0
15.12.2019 03:00:00 5,2 3,5 4,6 32 18 47 25 SSE 15 0,0
15.12.2019 02:00:00 4,4 2,6 3,7 29 16 40 21 S 13 0,0
15.12.2019 01:00:00 4,6 2,7 4,1 25 14 36 19 S 14 0,0
15.12.2019 00:00:00 4,7 2,3 3,9 22 12 32 18 S 15 0,0
14.12.2019 23:00:00 6,0 1,6 5,1 25 14 40 21 SW 18 0,0
14.12.2019 22:00:00 5,9 1,4 4,6 32 18 47 25 WSW 21 0,0
14.12.2019 21:00:00 5,9 1,7 4,8 32 18 50 27 WSW 23 0,0
14.12.2019 20:00:00 5,7 1,5 4,7 36 19 54 29 W 25 0,0
14.12.2019 19:00:00 5,2 2,2 4,0 32 18 65 35 W 26 0,4
14.12.2019 18:00:00 5,5 3,0 4,7 47 25 72 39 W 17 1,0
14.12.2019 17:00:00 5,5 2,3 4,6 32 18 50 27 WSW 15 0,6
14.12.2019 16:00:00 5,7 2,2 5,6 40 21 58 31 SW 18 0,0
14.12.2019 15:00:00 6,9 2,2 6,2 32 18 50 27 WSW 19 0,0
14.12.2019 14:00:00 6,8 2,5 6,2 36 19 58 31 WSW 19 0,0
14.12.2019 13:00:00 6,7 2,6 6,1 43 23 61 33 WSW 19 0,0
14.12.2019 12:00:00 6,6 3,1 5,9 47 25 65 35 W 18 0,0
14.12.2019 11:00:00 6,7 3,0 6,1 43 23 61 33 WSW 23 0,0
14.12.2019 10:00:00 6,4 3,2 5,8 36 19 61 33 W 26 0,0
14.12.2019 09:00:00 5,9 3,2 5,1 32 18 50 27 W 21 0,0
14.12.2019 08:00:00 6,2 3,6 5,1 29 16 36 19 WSW 19 0,1
14.12.2019 07:00:00 5,3 3,9 4,5 22 12 32 18 SW 20 0,0
14.12.2019 06:00:00 4,9 3,9 4,4 22 12 36 19 SSW 18 1,1
14.12.2019 05:00:00 5,0 3,7 4,7 29 16 47 25 SW 10 1,0
14.12.2019 04:00:00 5,3 3,8 4,9 32 18 47 25 S 15 0,0
14.12.2019 03:00:00 5,4 4,2 5,1 29 16 36 19 S 12 0,1
14.12.2019 02:00:00 5,4 4,6 5,2 22 12 36 19 S 11 0,2
14.12.2019 01:00:00 6,0 4,1 5,1 22 12 29 16 SSW 18 0,0
14.12.2019 00:00:00 5,9 4,3 5,2 22 12 43 23 SW 20 0,2
13.12.2019 23:00:00 6,1 4,4 5,6 25 14 40 21 SW 11 1,1
13.12.2019 22:00:00 5,9 4,0 5,0 18 10 36 19 SW 32 0,0
13.12.2019 21:00:00 6,1 4,5 5,3 25 14 40 21 WSW 22 0,8
13.12.2019 20:00:00 6,0 4,9 5,7 22 12 32 18 WSW 20 0,2
13.12.2019 19:00:00 5,8 4,8 5,1 14 8 25 14 W 25 0,0
13.12.2019 18:00:00 3,9 3,7 3,5 11 6 18 10 S 3,6 0,2
13.12.2019 17:00:00 4,3 3,8 4,2 14 8 18 10 SSW 3,1 0,5
13.12.2019 16:00:00 4,1 3,1 4,0 7 4 11 6 SSW 12 0,0
13.12.2019 15:00:00 4,2 3,0 4,2 7 4 11 6 SSW 15 0,0
13.12.2019 14:00:00 4,1 2,9 4,4 7 4 11 6 S 19 0,0
13.12.2019 13:00:00 3,9 2,8 4,1 7 4 18 10 SSE 19 0,0
13.12.2019 12:00:00 3,8 2,9 3,8 14 8 22 12 SE 18 0,0
13.12.2019 11:00:00 3,5 2,6 3,5 14 8 25 14 ESE 16 0,0
13.12.2019 10:00:00 3,3 2,6 3,2 18 10 36 19 ESE 11 0,0
13.12.2019 09:00:00 3,3 2,0 3,2 22 12 36 19 SE 24 0,0
13.12.2019 08:00:00 3,2 2,1 3,0 25 14 40 21 SE 25 0,0
13.12.2019 07:00:00 3,2 2,2 3,1 25 14 43 23 SE 28 0,0
13.12.2019 06:00:00 3,4 2,3 3,2 29 16 50 27 SE 35 0,0
13.12.2019 05:00:00 3,5 2,3 3,2 40 21 54 29 SSE 17 0,1
13.12.2019 04:00:00 3,6 2,5 3,4 43 23 65 35 SSE 12 0,3
13.12.2019 03:00:00 3,9 2,5 3,5 47 25 68 37 SSE 15 0,5
13.12.2019 02:00:00 4,1 2,5 3,8 50 27 68 37 SSE 16 0,1
13.12.2019 01:00:00 4,8 1,9 4,4 50 27 65 35 SSE 36 0,0
13.12.2019 00:00:00 4,9 1,6 4,5 43 23 61 33 SSE 50 0,0
12.12.2019 23:00:00 4,6 1,5 4,2 43 23 61 33 SSE 49 0,0
12.12.2019 22:00:00 4,5 1,5 4,2 43 23 61 33 SSE 50 0,0
12.12.2019 21:00:00 4,5 1,5 4,1 43 23 58 31 SSE 49 0,0
12.12.2019 20:00:00 4,4 1,4 4,0 43 23 58 31 SSE 48 0,0
12.12.2019 19:00:00 4,2 1,7 3,5 40 21 58 31 SSE 44 0,0
12.12.2019 18:00:00 4,4 2,4 3,5 36 19 47 25 SSE 34 0,0
12.12.2019 17:00:00 4,2 2,6 3,5 32 18 47 25 SSE 21 0,0
12.12.2019 16:00:00 4,2 2,8 3,6 32 18 40 21 SSE 19 0,0
12.12.2019 15:00:00 4,8 2,8 4,6 32 18 40 21 SSE 25 0,0
12.12.2019 14:00:00 4,8 3,0 4,8 32 18 43 23 S 23 0,0
12.12.2019 13:00:00 5,0 3,5 5,2 29 16 40 21 S 20 0,0
12.12.2019 12:00:00 5,0 3,6 5,5 25 14 36 19 S 18 0,0
12.12.2019 11:00:00 5,0 3,1 4,8 22 12 32 18 SSW 33 0,0
12.12.2019 10:00:00 4,4 2,6 3,7 18 10 29 16 SSW 30 0,0
12.12.2019 09:00:00 3,6 2,4 2,3 18 10 25 14 SSW 25 0,0
12.12.2019 08:00:00 4,0 2,3 2,7 18 10 22 12 SW 34 0,0
12.12.2019 07:00:00 4,1 2,5 3,0 14 8 25 14 SW 34 0,0
12.12.2019 06:00:00 4,8 4,0 4,4 18 10 29 16 SSW 13 0,4
12.12.2019 05:00:00 4,8 4,3 4,4 22 12 32 18 SSW 6 0,1
12.12.2019 04:00:00 4,9 3,9 4,4 22 12 32 18 SSW 13 0,1
12.12.2019 03:00:00 5,4 4,5 5,0 22 12 32 18 SSW 8 0,3
12.12.2019 02:00:00 5,6 4,6 5,3 25 14 32 18 S 9 0,0
12.12.2019 01:00:00 5,6 4,9 5,3 22 12 32 18 SSW 7 0,0
12.12.2019 00:00:00 5,2 4,6 4,7 25 14 36 19 S 5 0,0
11.12.2019 23:00:00 5,4 4,9 4,6 22 12 29 16 S 4,7 0,0
11.12.2019 22:00:00 5,4 5,0 4,8 22 12 29 16 S 4,0 0,0
11.12.2019 21:00:00 5,1 4,7 4,4 22 12 29 16 S 4,4 0,0
11.12.2019 20:00:00 4,8 4,5 4,2 22 12 32 18 S 3,1 0,0
11.12.2019 19:00:00 5,4 4,9 4,7 18 10 25 14 S 6 0,0
11.12.2019 18:00:00 5,6 5,0 4,8 18 10 25 14 S 8 0,0
11.12.2019 17:00:00 6,1 5,4 5,4 14 8 22 12 SSW 11 0,0
11.12.2019 16:00:00 5,7 5,4 5,2 18 10 25 14 S 7 0,0
11.12.2019 15:00:00 5,9 5,6 5,7 18 10 25 14 S 4,1 0,0
11.12.2019 14:00:00 6,3 5,9 6,5 18 10 25 14 S 5 0,0
11.12.2019 13:00:00 6,4 6,2 6,8 22 12 25 14 S 3,8 0,0
11.12.2019 12:00:00 6,3 5,7 6,2 18 10 22 12 S 9 0,0
11.12.2019 11:00:00 6,1 5,4 5,9 14 8 18 10 S 12 0,0
11.12.2019 10:00:00 6,0 5,1 5,1 11 6 14 8 SSW 15 0,0
11.12.2019 09:00:00 5,6 5,1 4,8 11 6 18 10 SSW 11 0,0
11.12.2019 08:00:00 6,3 5,7 5,6 14 8 22 12 S 19 0,0
11.12.2019 07:00:00 6,3 5,3 5,8 14 8 22 12 SSW 28 0,0
11.12.2019 06:00:00 6,7 6,1 6,3 14 8 29 16 SSW 14 0,0
11.12.2019 05:00:00 6,8 6,4 6,5 22 12 36 19 SSW 13 0,7
11.12.2019 04:00:00 6,7 6,3 6,5 25 14 43 23 SSW 11 0,6
11.12.2019 03:00:00 6,4 5,9 6,2 36 19 58 31 SSW 10 0,4
11.12.2019 02:00:00 6,4 5,4 6,1 43 23 61 33 S 10 0,2
11.12.2019 01:00:00 7,1 4,5 6,8 47 25 65 35 S 23 0,0
11.12.2019 00:00:00 6,9 4,0 6,6 50 27 68 37 S 26 0,0
10.12.2019 23:00:00 6,6 3,4 6,3 47 25 68 37 S 27 0,0
10.12.2019 22:00:00 6,3 3,0 6,0 50 27 68 37 S 27 0,0
10.12.2019 21:00:00 6,1 2,6 5,6 47 25 61 33 S 29 0,0
10.12.2019 20:00:00 5,8 2,5 5,4 47 25 65 35 S 33 0,0
10.12.2019 19:00:00 5,6 2,5 5,1 47 25 65 35 S 29 0,0
10.12.2019 18:00:00 5,3 3,0 4,9 43 23 65 35 S 16 0,1
10.12.2019 17:00:00 5,8 2,4 5,4 43 23 61 33 S 27 0,0
10.12.2019 16:00:00 5,7 2,3 5,2 43 23 58 31 S 28 0,0
10.12.2019 15:00:00 5,6 2,1 5,2 40 21 54 29 S 27 0,0
10.12.2019 14:00:00 5,4 2,1 5,2 43 23 54 29 S 26 0,0
10.12.2019 13:00:00 5,6 1,9 5,6 40 21 54 29 S 22 0,0
10.12.2019 12:00:00 5,3 2,8 5,5 32 18 43 23 S 23 0,0
10.12.2019 11:00:00 6,0 2,8 5,9 25 14 36 19 SSW 22 0,0
10.12.2019 10:00:00 5,1 2,9 4,4 22 12 29 16 SSW 21 0,0
10.12.2019 09:00:00 4,9 2,7 4,1 22 12 32 18 SSW 19 0,0
10.12.2019 08:00:00 4,7 2,3 3,0 18 10 25 14 SSW 24 0,0
10.12.2019 07:00:00 4,6 2,1 3,6 18 10 22 12 SW 22 0,0
10.12.2019 06:00:00 5,2 2,3 4,4 14 8 22 12 SW 20 0,0
10.12.2019 05:00:00 4,2 1,8 2,7 14 8 18 10 W 20 0,0
10.12.2019 04:00:00 5,9 1,6 4,4 11 6 22 12 W 25 0,0
10.12.2019 03:00:00 5,9 0,6 4,5 22 12 47 25 NW 34 0,0
10.12.2019 02:00:00 6,4 1,6 5,7 32 18 43 23 NNW 17 0,0
10.12.2019 01:00:00 6,4 0,4 5,1 29 16 40 21 NW 34 0,0
10.12.2019 00:00:00 6,3 0,9 5,1 29 16 58 31 NW 23 0,0
09.12.2019 23:00:00 6,6 1,6 5,7 32 18 47 25 NW 19 0,0
09.12.2019 22:00:00 6,6 1,0 5,5 36 19 68 37 NW 19 0,0
09.12.2019 21:00:00 6,1 2,5 4,9 29 16 54 29 NW 17 0,0
09.12.2019 20:00:00 6,6 1,3 5,3 40 21 58 31 NNW 19 0,0

tt = temperature
td = dewpoint
tt 5cm = temperature 5cm
ff = wind speed
fx = gusts
dd = wind direction
vv = visibility
rr = precipitation

Next stations